sensor_id;sensor_type;location;lat;lon;timestamp;P1;durP1;ratioP1;P2;durP2;ratioP2
26325;SDS011;14032;52.510;7.342;2023-02-03T00:01:29;37.35;;;17.08;;
26325;SDS011;14032;52.510;7.342;2023-02-03T00:03:54;45.20;;;16.63;;
26325;SDS011;14032;52.510;7.342;2023-02-03T00:06:20;30.98;;;16.10;;
26325;SDS011;14032;52.510;7.342;2023-02-03T00:08:46;34.42;;;14.95;;
26325;SDS011;14032;52.510;7.342;2023-02-03T00:11:12;31.10;;;16.50;;
26325;SDS011;14032;52.510;7.342;2023-02-03T00:13:38;29.00;;;14.38;;
26325;SDS011;14032;52.510;7.342;2023-02-03T00:16:04;27.00;;;14.57;;
26325;SDS011;14032;52.510;7.342;2023-02-03T00:18:30;37.05;;;14.68;;
26325;SDS011;14032;52.510;7.342;2023-02-03T00:20:57;28.83;;;14.00;;
26325;SDS011;14032;52.510;7.342;2023-02-03T00:23:22;29.08;;;14.45;;
26325;SDS011;14032;52.510;7.342;2023-02-03T00:25:49;27.48;;;14.18;;
26325;SDS011;14032;52.510;7.342;2023-02-03T00:28:15;33.22;;;14.35;;
26325;SDS011;14032;52.510;7.342;2023-02-03T00:30:41;30.98;;;14.32;;
26325;SDS011;14032;52.510;7.342;2023-02-03T00:33:07;33.00;;;13.55;;
26325;SDS011;14032;52.510;7.342;2023-02-03T00:35:32;27.38;;;13.77;;
26325;SDS011;14032;52.510;7.342;2023-02-03T00:38:01;26.20;;;14.48;;
26325;SDS011;14032;52.510;7.342;2023-02-03T00:40:26;33.08;;;14.40;;
26325;SDS011;14032;52.510;7.342;2023-02-03T00:42:53;27.33;;;13.50;;
26325;SDS011;14032;52.510;7.342;2023-02-03T00:45:19;35.85;;;15.25;;
26325;SDS011;14032;52.510;7.342;2023-02-03T00:47:45;25.80;;;13.48;;
26325;SDS011;14032;52.510;7.342;2023-02-03T00:50:10;31.58;;;13.45;;
26325;SDS011;14032;52.510;7.342;2023-02-03T00:52:36;33.15;;;13.57;;
26325;SDS011;14032;52.510;7.342;2023-02-03T00:55:02;27.73;;;12.82;;
26325;SDS011;14032;52.510;7.342;2023-02-03T00:57:28;33.05;;;12.75;;
26325;SDS011;14032;52.510;7.342;2023-02-03T00:59:54;24.80;;;12.10;;
26325;SDS011;14032;52.510;7.342;2023-02-03T01:02:20;22.75;;;12.57;;
26325;SDS011;14032;52.510;7.342;2023-02-03T01:04:45;26.33;;;13.05;;
26325;SDS011;14032;52.510;7.342;2023-02-03T01:07:12;25.45;;;11.45;;
26325;SDS011;14032;52.510;7.342;2023-02-03T01:09:37;27.60;;;12.70;;
26325;SDS011;14032;52.510;7.342;2023-02-03T01:12:03;20.50;;;11.15;;
26325;SDS011;14032;52.510;7.342;2023-02-03T01:14:29;32.10;;;12.07;;
26325;SDS011;14032;52.510;7.342;2023-02-03T01:16:55;28.05;;;11.30;;
26325;SDS011;14032;52.510;7.342;2023-02-03T01:19:21;30.65;;;11.73;;
26325;SDS011;14032;52.510;7.342;2023-02-03T01:21:47;22.85;;;10.82;;
26325;SDS011;14032;52.510;7.342;2023-02-03T01:24:12;23.17;;;10.65;;
26325;SDS011;14032;52.510;7.342;2023-02-03T01:26:41;22.85;;;9.95;;
26325;SDS011;14032;52.510;7.342;2023-02-03T01:29:07;22.55;;;10.68;;
26325;SDS011;14032;52.510;7.342;2023-02-03T01:31:34;26.75;;;10.50;;
26325;SDS011;14032;52.510;7.342;2023-02-03T01:34:03;23.05;;;10.50;;
26325;SDS011;14032;52.510;7.342;2023-02-03T01:36:31;22.13;;;11.30;;
26325;SDS011;14032;52.510;7.342;2023-02-03T01:38:57;21.92;;;10.85;;
26325;SDS011;14032;52.510;7.342;2023-02-03T01:41:27;22.83;;;10.35;;
26325;SDS011;14032;52.510;7.342;2023-02-03T01:43:56;29.70;;;11.52;;
26325;SDS011;14032;52.510;7.342;2023-02-03T01:46:39;24.50;;;10.80;;
26325;SDS011;14032;52.510;7.342;2023-02-03T01:49:26;19.50;;;9.55;;
26325;SDS011;14032;52.510;7.342;2023-02-03T01:51:55;25.40;;;10.53;;
26325;SDS011;14032;52.510;7.342;2023-02-03T01:54:22;19.77;;;9.57;;
26325;SDS011;14032;52.510;7.342;2023-02-03T01:57:02;27.98;;;10.00;;
26325;SDS011;14032;52.510;7.342;2023-02-03T01:59:31;24.52;;;9.80;;
26325;SDS011;14032;52.510;7.342;2023-02-03T02:01:59;22.20;;;9.77;;
26325;SDS011;14032;52.510;7.342;2023-02-03T02:04:28;28.27;;;10.45;;
26325;SDS011;14032;52.510;7.342;2023-02-03T02:07:00;25.33;;;9.80;;
26325;SDS011;14032;52.510;7.342;2023-02-03T02:09:27;20.13;;;9.13;;
26325;SDS011;14032;52.510;7.342;2023-02-03T02:11:53;21.58;;;9.43;;
26325;SDS011;14032;52.510;7.342;2023-02-03T02:14:18;20.65;;;9.43;;
26325;SDS011;14032;52.510;7.342;2023-02-03T02:16:49;23.90;;;8.73;;
26325;SDS011;14032;52.510;7.342;2023-02-03T02:38:39;25.73;;;9.57;;
26325;SDS011;14032;52.510;7.342;2023-02-03T02:41:18;28.83;;;9.93;;
26325;SDS011;14032;52.510;7.342;2023-02-03T02:44:09;27.20;;;9.60;;
26325;SDS011;14032;52.510;7.342;2023-02-03T02:46:54;19.90;;;8.98;;
26325;SDS011;14032;52.510;7.342;2023-02-03T02:49:29;21.20;;;9.02;;
26325;SDS011;14032;52.510;7.342;2023-02-03T02:52:00;20.63;;;9.02;;
26325;SDS011;14032;52.510;7.342;2023-02-03T02:54:29;20.65;;;8.05;;
26325;SDS011;14032;52.510;7.342;2023-02-03T02:56:58;21.90;;;8.68;;
26325;SDS011;14032;52.510;7.342;2023-02-03T02:59:27;21.35;;;8.10;;
26325;SDS011;14032;52.510;7.342;2023-02-03T03:01:52;23.30;;;8.52;;
26325;SDS011;14032;52.510;7.342;2023-02-03T03:04:20;24.35;;;8.30;;
26325;SDS011;14032;52.510;7.342;2023-02-03T03:06:51;24.75;;;9.07;;
26325;SDS011;14032;52.510;7.342;2023-02-03T03:09:45;23.33;;;7.18;;
26325;SDS011;14032;52.510;7.342;2023-02-03T03:12:15;20.20;;;8.10;;
26325;SDS011;14032;52.510;7.342;2023-02-03T03:14:49;22.98;;;7.18;;
26325;SDS011;14032;52.510;7.342;2023-02-03T03:17:26;20.40;;;7.18;;
26325;SDS011;14032;52.510;7.342;2023-02-03T03:20:17;18.80;;;6.87;;
26325;SDS011;14032;52.510;7.342;2023-02-03T03:22:48;20.73;;;6.28;;
26325;SDS011;14032;52.510;7.342;2023-02-03T03:25:20;19.02;;;6.40;;
26325;SDS011;14032;52.510;7.342;2023-02-03T03:28:00;14.82;;;5.93;;
26325;SDS011;14032;52.510;7.342;2023-02-03T03:30:31;22.65;;;6.50;;
26325;SDS011;14032;52.510;7.342;2023-02-03T03:32:59;17.90;;;6.13;;
26325;SDS011;14032;52.510;7.342;2023-02-03T03:35:27;18.55;;;6.65;;
26325;SDS011;14032;52.510;7.342;2023-02-03T03:38:19;19.40;;;5.50;;
26325;SDS011;14032;52.510;7.342;2023-02-03T03:40:50;22.15;;;5.68;;
26325;SDS011;14032;52.510;7.342;2023-02-03T03:43:27;15.18;;;4.75;;
26325;SDS011;14032;52.510;7.342;2023-02-03T03:46:09;21.85;;;5.80;;
26325;SDS011;14032;52.510;7.342;2023-02-03T03:48:56;17.30;;;5.30;;
26325;SDS011;14032;52.510;7.342;2023-02-03T03:51:27;16.42;;;4.60;;
26325;SDS011;14032;52.510;7.342;2023-02-03T03:53:59;13.85;;;4.05;;
26325;SDS011;14032;52.510;7.342;2023-02-03T03:56:31;19.65;;;4.55;;
26325;SDS011;14032;52.510;7.342;2023-02-03T03:59:04;16.85;;;5.05;;
26325;SDS011;14032;52.510;7.342;2023-02-03T04:01:32;15.45;;;4.18;;
26325;SDS011;14032;52.510;7.342;2023-02-03T04:03:59;18.55;;;4.60;;
26325;SDS011;14032;52.510;7.342;2023-02-03T04:06:29;12.48;;;4.10;;
26325;SDS011;14032;52.510;7.342;2023-02-03T04:08:55;18.80;;;4.50;;
26325;SDS011;14032;52.510;7.342;2023-02-03T04:11:20;20.98;;;4.22;;
26325;SDS011;14032;52.510;7.342;2023-02-03T04:14:04;13.75;;;3.53;;
26325;SDS011;14032;52.510;7.342;2023-02-03T04:16:30;13.30;;;4.00;;
26325;SDS011;14032;52.510;7.342;2023-02-03T04:18:56;15.82;;;3.97;;
26325;SDS011;14032;52.510;7.342;2023-02-03T04:21:21;15.63;;;3.85;;
26325;SDS011;14032;52.510;7.342;2023-02-03T04:23:47;16.33;;;3.65;;
26325;SDS011;14032;52.510;7.342;2023-02-03T04:26:12;12.25;;;3.00;;
26325;SDS011;14032;52.510;7.342;2023-02-03T04:28:38;14.43;;;3.08;;
26325;SDS011;14032;52.510;7.342;2023-02-03T04:31:03;15.73;;;3.20;;
26325;SDS011;14032;52.510;7.342;2023-02-03T04:33:29;15.20;;;3.75;;
26325;SDS011;14032;52.510;7.342;2023-02-03T04:35:55;17.02;;;3.15;;
26325;SDS011;14032;52.510;7.342;2023-02-03T04:38:20;13.25;;;3.17;;
26325;SDS011;14032;52.510;7.342;2023-02-03T04:40:46;12.88;;;2.83;;
26325;SDS011;14032;52.510;7.342;2023-02-03T04:43:11;12.15;;;2.55;;
26325;SDS011;14032;52.510;7.342;2023-02-03T04:45:41;12.38;;;2.50;;
26325;SDS011;14032;52.510;7.342;2023-02-03T04:48:06;12.73;;;2.72;;
26325;SDS011;14032;52.510;7.342;2023-02-03T04:50:32;14.25;;;2.95;;
26325;SDS011;14032;52.510;7.342;2023-02-03T04:52:57;18.50;;;3.40;;
26325;SDS011;14032;52.510;7.342;2023-02-03T04:55:24;13.60;;;3.03;;
26325;SDS011;14032;52.510;7.342;2023-02-03T04:57:54;12.88;;;3.17;;
26325;SDS011;14032;52.510;7.342;2023-02-03T05:00:24;12.38;;;2.72;;
26325;SDS011;14032;52.510;7.342;2023-02-03T05:02:50;10.65;;;2.40;;
26325;SDS011;14032;52.510;7.342;2023-02-03T05:05:16;9.82;;;2.22;;
26325;SDS011;14032;52.510;7.342;2023-02-03T05:07:41;19.45;;;2.72;;
26325;SDS011;14032;52.510;7.342;2023-02-03T05:10:07;13.63;;;2.65;;
26325;SDS011;14032;52.510;7.342;2023-02-03T05:12:33;15.02;;;2.47;;
26325;SDS011;14032;52.510;7.342;2023-02-03T05:14:59;9.50;;;2.10;;
26325;SDS011;14032;52.510;7.342;2023-02-03T05:17:24;12.98;;;3.17;;
26325;SDS011;14032;52.510;7.342;2023-02-03T05:19:50;11.45;;;2.22;;
26325;SDS011;14032;52.510;7.342;2023-02-03T05:22:16;11.73;;;2.58;;
26325;SDS011;14032;52.510;7.342;2023-02-03T05:24:41;11.25;;;2.70;;
26325;SDS011;14032;52.510;7.342;2023-02-03T05:27:07;14.32;;;3.28;;
26325;SDS011;14032;52.510;7.342;2023-02-03T05:29:32;11.15;;;2.40;;
26325;SDS011;14032;52.510;7.342;2023-02-03T05:31:58;10.20;;;2.75;;
26325;SDS011;14032;52.510;7.342;2023-02-03T05:34:23;12.80;;;2.83;;
26325;SDS011;14032;52.510;7.342;2023-02-03T05:36:49;10.77;;;3.05;;
26325;SDS011;14032;52.510;7.342;2023-02-03T05:39:14;8.98;;;2.42;;
26325;SDS011;14032;52.510;7.342;2023-02-03T05:41:40;11.27;;;2.92;;
26325;SDS011;14032;52.510;7.342;2023-02-03T05:44:21;12.75;;;2.53;;
26325;SDS011;14032;52.510;7.342;2023-02-03T05:46:48;14.48;;;3.53;;
26325;SDS011;14032;52.510;7.342;2023-02-03T05:49:16;15.52;;;2.80;;
26325;SDS011;14032;52.510;7.342;2023-02-03T05:51:43;10.65;;;2.60;;
26325;SDS011;14032;52.510;7.342;2023-02-03T05:54:09;21.10;;;4.45;;
26325;SDS011;14032;52.510;7.342;2023-02-03T05:56:34;8.90;;;2.80;;
26325;SDS011;14032;52.510;7.342;2023-02-03T05:59:00;14.65;;;3.38;;
26325;SDS011;14032;52.510;7.342;2023-02-03T06:01:26;13.55;;;3.20;;
26325;SDS011;14032;52.510;7.342;2023-02-03T06:03:53;10.18;;;2.67;;
26325;SDS011;14032;52.510;7.342;2023-02-03T06:06:18;13.30;;;3.22;;
26325;SDS011;14032;52.510;7.342;2023-02-03T06:08:44;13.18;;;3.20;;
26325;SDS011;14032;52.510;7.342;2023-02-03T06:11:09;10.85;;;3.05;;
26325;SDS011;14032;52.510;7.342;2023-02-03T06:13:35;7.82;;;2.88;;
26325;SDS011;14032;52.510;7.342;2023-02-03T06:16:01;13.50;;;3.70;;
26325;SDS011;14032;52.510;7.342;2023-02-03T06:18:28;13.07;;;3.03;;
26325;SDS011;14032;52.510;7.342;2023-02-03T06:20:54;16.10;;;3.33;;
26325;SDS011;14032;52.510;7.342;2023-02-03T06:23:19;12.82;;;3.50;;
26325;SDS011;14032;52.510;7.342;2023-02-03T06:25:48;15.80;;;3.92;;
26325;SDS011;14032;52.510;7.342;2023-02-03T06:28:15;10.93;;;3.70;;
26325;SDS011;14032;52.510;7.342;2023-02-03T06:30:40;11.48;;;3.67;;
26325;SDS011;14032;52.510;7.342;2023-02-03T06:33:06;14.65;;;3.95;;
26325;SDS011;14032;52.510;7.342;2023-02-03T06:35:32;17.23;;;4.00;;
26325;SDS011;14032;52.510;7.342;2023-02-03T06:37:58;16.90;;;4.07;;
26325;SDS011;14032;52.510;7.342;2023-02-03T06:40:24;12.20;;;3.90;;
26325;SDS011;14032;52.510;7.342;2023-02-03T06:42:50;13.60;;;4.05;;
26325;SDS011;14032;52.510;7.342;2023-02-03T06:45:15;18.73;;;4.57;;
26325;SDS011;14032;52.510;7.342;2023-02-03T06:47:42;17.15;;;3.80;;
26325;SDS011;14032;52.510;7.342;2023-02-03T06:50:09;15.60;;;3.78;;
26325;SDS011;14032;52.510;7.342;2023-02-03T06:52:38;15.45;;;4.15;;
26325;SDS011;14032;52.510;7.342;2023-02-03T06:55:04;14.75;;;4.03;;
26325;SDS011;14032;52.510;7.342;2023-02-03T06:57:30;13.70;;;4.15;;
26325;SDS011;14032;52.510;7.342;2023-02-03T06:59:56;13.10;;;3.72;;
26325;SDS011;14032;52.510;7.342;2023-02-03T07:02:21;12.50;;;3.90;;
26325;SDS011;14032;52.510;7.342;2023-02-03T07:04:47;15.85;;;3.30;;
26325;SDS011;14032;52.510;7.342;2023-02-03T07:07:13;15.77;;;4.20;;
26325;SDS011;14032;52.510;7.342;2023-02-03T07:09:38;15.20;;;4.22;;
26325;SDS011;14032;52.510;7.342;2023-02-03T07:12:05;19.75;;;3.58;;
26325;SDS011;14032;52.510;7.342;2023-02-03T07:14:31;13.45;;;3.83;;
26325;SDS011;14032;52.510;7.342;2023-02-03T07:17:00;19.65;;;3.78;;
26325;SDS011;14032;52.510;7.342;2023-02-03T07:19:26;10.82;;;3.55;;
26325;SDS011;14032;52.510;7.342;2023-02-03T07:21:52;16.35;;;4.10;;
26325;SDS011;14032;52.510;7.342;2023-02-03T07:24:17;13.88;;;3.55;;
26325;SDS011;14032;52.510;7.342;2023-02-03T07:26:43;12.02;;;3.72;;
26325;SDS011;14032;52.510;7.342;2023-02-03T07:29:09;13.00;;;3.03;;
26325;SDS011;14032;52.510;7.342;2023-02-03T07:31:34;11.65;;;3.25;;
26325;SDS011;14032;52.510;7.342;2023-02-03T07:34:00;13.13;;;3.28;;
26325;SDS011;14032;52.510;7.342;2023-02-03T07:36:26;17.92;;;3.83;;
26325;SDS011;14032;52.510;7.342;2023-02-03T07:38:52;12.13;;;2.97;;
26325;SDS011;14032;52.510;7.342;2023-02-03T07:41:18;13.43;;;3.45;;
26325;SDS011;14032;52.510;7.342;2023-02-03T07:43:44;17.10;;;3.35;;
26325;SDS011;14032;52.510;7.342;2023-02-03T07:46:09;14.98;;;3.67;;
26325;SDS011;14032;52.510;7.342;2023-02-03T07:48:35;16.05;;;3.40;;
26325;SDS011;14032;52.510;7.342;2023-02-03T07:51:00;15.57;;;3.67;;
26325;SDS011;14032;52.510;7.342;2023-02-03T07:53:26;12.10;;;3.30;;
26325;SDS011;14032;52.510;7.342;2023-02-03T07:55:52;13.15;;;2.67;;
26325;SDS011;14032;52.510;7.342;2023-02-03T07:58:17;15.93;;;3.60;;
26325;SDS011;14032;52.510;7.342;2023-02-03T08:00:43;26.05;;;3.40;;
26325;SDS011;14032;52.510;7.342;2023-02-03T08:03:09;11.48;;;2.92;;
26325;SDS011;14032;52.510;7.342;2023-02-03T08:05:35;15.88;;;3.42;;
26325;SDS011;14032;52.510;7.342;2023-02-03T08:08:00;13.10;;;3.60;;
26325;SDS011;14032;52.510;7.342;2023-02-03T08:10:26;16.00;;;3.95;;
26325;SDS011;14032;52.510;7.342;2023-02-03T08:12:52;12.75;;;3.03;;
26325;SDS011;14032;52.510;7.342;2023-02-03T08:15:19;20.08;;;3.40;;
26325;SDS011;14032;52.510;7.342;2023-02-03T08:17:45;16.27;;;3.95;;
26325;SDS011;14032;52.510;7.342;2023-02-03T08:20:13;13.65;;;3.58;;
26325;SDS011;14032;52.510;7.342;2023-02-03T08:22:38;13.38;;;3.35;;
26325;SDS011;14032;52.510;7.342;2023-02-03T08:25:04;12.27;;;2.83;;
26325;SDS011;14032;52.510;7.342;2023-02-03T08:27:30;16.80;;;3.38;;
26325;SDS011;14032;52.510;7.342;2023-02-03T08:29:56;15.90;;;3.17;;
26325;SDS011;14032;52.510;7.342;2023-02-03T08:32:22;16.17;;;3.28;;
26325;SDS011;14032;52.510;7.342;2023-02-03T08:34:49;11.93;;;3.63;;
26325;SDS011;14032;52.510;7.342;2023-02-03T08:37:15;14.43;;;3.15;;
26325;SDS011;14032;52.510;7.342;2023-02-03T08:39:43;17.23;;;3.28;;
26325;SDS011;14032;52.510;7.342;2023-02-03T08:42:09;19.45;;;3.53;;
26325;SDS011;14032;52.510;7.342;2023-02-03T08:44:34;15.80;;;4.00;;
26325;SDS011;14032;52.510;7.342;2023-02-03T08:47:00;16.60;;;3.25;;
26325;SDS011;14032;52.510;7.342;2023-02-03T08:49:27;17.20;;;3.30;;
26325;SDS011;14032;52.510;7.342;2023-02-03T08:51:54;22.20;;;4.35;;
26325;SDS011;14032;52.510;7.342;2023-02-03T08:54:20;13.57;;;3.80;;
26325;SDS011;14032;52.510;7.342;2023-02-03T08:56:46;19.38;;;3.40;;
26325;SDS011;14032;52.510;7.342;2023-02-03T08:59:12;12.60;;;3.20;;
26325;SDS011;14032;52.510;7.342;2023-02-03T09:01:39;14.77;;;3.88;;
26325;SDS011;14032;52.510;7.342;2023-02-03T09:04:08;13.95;;;3.78;;
26325;SDS011;14032;52.510;7.342;2023-02-03T09:06:34;20.77;;;3.72;;
26325;SDS011;14032;52.510;7.342;2023-02-03T09:09:03;18.52;;;4.20;;
26325;SDS011;14032;52.510;7.342;2023-02-03T09:11:29;18.13;;;3.95;;
26325;SDS011;14032;52.510;7.342;2023-02-03T09:13:54;13.18;;;3.95;;
26325;SDS011;14032;52.510;7.342;2023-02-03T09:16:22;12.23;;;3.72;;
26325;SDS011;14032;52.510;7.342;2023-02-03T09:18:49;15.13;;;3.83;;
26325;SDS011;14032;52.510;7.342;2023-02-03T09:21:15;18.13;;;3.97;;
26325;SDS011;14032;52.510;7.342;2023-02-03T09:23:41;14.32;;;3.97;;
26325;SDS011;14032;52.510;7.342;2023-02-03T09:26:09;14.05;;;3.80;;
26325;SDS011;14032;52.510;7.342;2023-02-03T09:28:36;24.50;;;4.32;;
26325;SDS011;14032;52.510;7.342;2023-02-03T09:31:03;14.25;;;3.88;;
26325;SDS011;14032;52.510;7.342;2023-02-03T09:33:47;27.23;;;4.38;;
26325;SDS011;14032;52.510;7.342;2023-02-03T09:36:12;21.30;;;3.67;;
26325;SDS011;14032;52.510;7.342;2023-02-03T09:38:38;11.63;;;3.65;;
26325;SDS011;14032;52.510;7.342;2023-02-03T09:46:54;15.82;;;3.08;;
26325;SDS011;14032;52.510;7.342;2023-02-03T09:49:26;21.80;;;3.63;;
26325;SDS011;14032;52.510;7.342;2023-02-03T09:52:22;19.48;;;3.50;;
26325;SDS011;14032;52.510;7.342;2023-02-03T09:57:34;18.45;;;3.83;;
26325;SDS011;14032;52.510;7.342;2023-02-03T10:00:12;22.73;;;3.67;;
26325;SDS011;14032;52.510;7.342;2023-02-03T10:02:50;17.23;;;3.78;;
26325;SDS011;14032;52.510;7.342;2023-02-03T10:07:51;27.23;;;4.45;;
26325;SDS011;14032;52.510;7.342;2023-02-03T10:13:11;19.48;;;3.42;;
26325;SDS011;14032;52.510;7.342;2023-02-03T10:18:44;15.00;;;4.00;;
26325;SDS011;14032;52.510;7.342;2023-02-03T10:26:28;18.75;;;3.67;;
26325;SDS011;14032;52.510;7.342;2023-02-03T10:29:01;25.23;;;4.78;;
26325;SDS011;14032;52.510;7.342;2023-02-03T10:31:48;19.02;;;4.10;;
26325;SDS011;14032;52.510;7.342;2023-02-03T10:34:15;22.00;;;4.28;;
26325;SDS011;14032;52.510;7.342;2023-02-03T10:36:55;15.50;;;3.40;;
26325;SDS011;14032;52.510;7.342;2023-02-03T10:39:32;25.27;;;4.03;;
26325;SDS011;14032;52.510;7.342;2023-02-03T10:42:07;19.58;;;3.92;;
26325;SDS011;14032;52.510;7.342;2023-02-03T10:44:39;24.80;;;3.55;;
26325;SDS011;14032;52.510;7.342;2023-02-03T10:47:11;23.40;;;4.18;;
26325;SDS011;14032;52.510;7.342;2023-02-03T10:49:46;19.83;;;3.10;;
26325;SDS011;14032;52.510;7.342;2023-02-03T10:52:24;24.92;;;4.75;;
26325;SDS011;14032;52.510;7.342;2023-02-03T10:54:57;21.63;;;4.53;;
26325;SDS011;14032;52.510;7.342;2023-02-03T10:57:26;28.65;;;4.30;;
26325;SDS011;14032;52.510;7.342;2023-02-03T10:59:53;26.02;;;3.92;;
26325;SDS011;14032;52.510;7.342;2023-02-03T11:02:29;24.95;;;4.10;;
26325;SDS011;14032;52.510;7.342;2023-02-03T11:05:08;27.95;;;4.47;;
26325;SDS011;14032;52.510;7.342;2023-02-03T11:07:34;27.38;;;5.15;;
26325;SDS011;14032;52.510;7.342;2023-02-03T11:09:59;28.60;;;4.18;;
26325;SDS011;14032;52.510;7.342;2023-02-03T11:12:25;36.35;;;5.53;;
26325;SDS011;14032;52.510;7.342;2023-02-03T11:14:51;30.80;;;5.47;;
26325;SDS011;14032;52.510;7.342;2023-02-03T11:17:22;25.63;;;4.70;;
26325;SDS011;14032;52.510;7.342;2023-02-03T11:22:39;38.92;;;5.55;;
26325;SDS011;14032;52.510;7.342;2023-02-03T11:25:40;29.15;;;4.88;;
26325;SDS011;14032;52.510;7.342;2023-02-03T11:28:02;28.73;;;5.13;;
26325;SDS011;14032;52.510;7.342;2023-02-03T11:30:31;30.23;;;5.65;;
26325;SDS011;14032;52.510;7.342;2023-02-03T11:33:00;28.17;;;4.75;;
26325;SDS011;14032;52.510;7.342;2023-02-03T11:35:28;36.78;;;5.57;;
26325;SDS011;14032;52.510;7.342;2023-02-03T11:37:57;36.13;;;5.60;;
26325;SDS011;14032;52.510;7.342;2023-02-03T11:40:25;33.53;;;6.13;;
26325;SDS011;14032;52.510;7.342;2023-02-03T11:45:37;36.22;;;5.97;;
26325;SDS011;14032;52.510;7.342;2023-02-03T11:51:00;39.13;;;6.07;;
26325;SDS011;14032;52.510;7.342;2023-02-03T12:04:34;43.33;;;7.23;;
26325;SDS011;14032;52.510;7.342;2023-02-03T12:12:47;34.40;;;5.57;;
26325;SDS011;14032;52.510;7.342;2023-02-03T12:26:48;38.33;;;5.65;;
26325;SDS011;14032;52.510;7.342;2023-02-03T12:29:24;37.55;;;6.40;;
26325;SDS011;14032;52.510;7.342;2023-02-03T12:34:40;44.63;;;7.30;;
26325;SDS011;14032;52.510;7.342;2023-02-03T12:37:20;40.35;;;6.10;;
26325;SDS011;14032;52.510;7.342;2023-02-03T12:39:50;33.17;;;6.35;;
26325;SDS011;14032;52.510;7.342;2023-02-03T12:45:08;35.17;;;6.47;;
26325;SDS011;14032;52.510;7.342;2023-02-03T12:50:15;38.10;;;6.07;;
26325;SDS011;14032;52.510;7.342;2023-02-03T12:52:52;39.92;;;5.85;;
26325;SDS011;14032;52.510;7.342;2023-02-03T12:55:33;34.80;;;5.63;;
26325;SDS011;14032;52.510;7.342;2023-02-03T12:58:06;35.13;;;5.72;;
26325;SDS011;14032;52.510;7.342;2023-02-03T13:00:43;42.10;;;6.32;;
26325;SDS011;14032;52.510;7.342;2023-02-03T13:06:14;32.33;;;5.82;;
26325;SDS011;14032;52.510;7.342;2023-02-03T13:09:04;41.50;;;6.97;;
26325;SDS011;14032;52.510;7.342;2023-02-03T13:12:02;38.00;;;5.97;;
26325;SDS011;14032;52.510;7.342;2023-02-03T13:17:04;38.55;;;5.28;;
26325;SDS011;14032;52.510;7.342;2023-02-03T13:19:42;39.90;;;6.40;;
26325;SDS011;14032;52.510;7.342;2023-02-03T13:22:13;34.33;;;5.70;;
26325;SDS011;14032;52.510;7.342;2023-02-03T13:24:46;32.22;;;4.95;;
26325;SDS011;14032;52.510;7.342;2023-02-03T13:27:36;43.97;;;6.95;;
26325;SDS011;14032;52.510;7.342;2023-02-03T13:43:36;38.90;;;6.18;;
26325;SDS011;14032;52.510;7.342;2023-02-03T13:46:16;39.72;;;6.47;;
26325;SDS011;14032;52.510;7.342;2023-02-03T13:48:45;43.08;;;5.50;;
26325;SDS011;14032;52.510;7.342;2023-02-03T13:51:13;40.03;;;6.95;;
26325;SDS011;14032;52.510;7.342;2023-02-03T13:53:44;51.17;;;7.50;;
26325;SDS011;14032;52.510;7.342;2023-02-03T13:56:22;34.53;;;5.53;;
26325;SDS011;14032;52.510;7.342;2023-02-03T14:01:38;40.45;;;5.78;;
26325;SDS011;14032;52.510;7.342;2023-02-03T14:04:08;35.92;;;5.95;;
26325;SDS011;14032;52.510;7.342;2023-02-03T14:07:02;41.10;;;6.82;;
26325;SDS011;14032;52.510;7.342;2023-02-03T14:14:40;47.97;;;6.35;;
26325;SDS011;14032;52.510;7.342;2023-02-03T14:17:22;36.25;;;6.82;;
26325;SDS011;14032;52.510;7.342;2023-02-03T14:19:59;42.05;;;6.65;;
26325;SDS011;14032;52.510;7.342;2023-02-03T14:22:25;45.70;;;6.65;;
26325;SDS011;14032;52.510;7.342;2023-02-03T14:24:52;39.17;;;6.25;;
26325;SDS011;14032;52.510;7.342;2023-02-03T14:27:23;40.63;;;6.03;;
26325;SDS011;14032;52.510;7.342;2023-02-03T14:30:05;39.05;;;6.15;;
26325;SDS011;14032;52.510;7.342;2023-02-03T14:32:50;42.75;;;6.53;;
26325;SDS011;14032;52.510;7.342;2023-02-03T14:35:18;45.63;;;6.83;;
26325;SDS011;14032;52.510;7.342;2023-02-03T14:43:23;43.75;;;6.45;;
26325;SDS011;14032;52.510;7.342;2023-02-03T14:49:23;33.17;;;7.22;;
26325;SDS011;14032;52.510;7.342;2023-02-03T14:57:36;40.05;;;5.95;;
26325;SDS011;14032;52.510;7.342;2023-02-03T15:05:39;29.08;;;5.20;;
26325;SDS011;14032;52.510;7.342;2023-02-03T15:11:27;43.65;;;8.35;;
26325;SDS011;14032;52.510;7.342;2023-02-03T15:16:45;51.50;;;8.32;;
26325;SDS011;14032;52.510;7.342;2023-02-03T15:19:15;40.30;;;6.68;;
26325;SDS011;14032;52.510;7.342;2023-02-03T15:21:42;41.60;;;5.97;;
26325;SDS011;14032;52.510;7.342;2023-02-03T15:24:13;37.67;;;6.65;;
26325;SDS011;14032;52.510;7.342;2023-02-03T15:26:46;52.28;;;6.90;;
26325;SDS011;14032;52.510;7.342;2023-02-03T15:29:31;48.33;;;6.95;;
26325;SDS011;14032;52.510;7.342;2023-02-03T15:31:59;43.38;;;7.28;;
26325;SDS011;14032;52.510;7.342;2023-02-03T15:34:32;39.88;;;6.15;;
26325;SDS011;14032;52.510;7.342;2023-02-03T15:37:05;43.38;;;5.95;;
26325;SDS011;14032;52.510;7.342;2023-02-03T15:45:20;40.65;;;6.32;;
26325;SDS011;14032;52.510;7.342;2023-02-03T15:50:58;37.30;;;6.38;;
26325;SDS011;14032;52.510;7.342;2023-02-03T15:53:32;41.38;;;6.57;;
26325;SDS011;14032;52.510;7.342;2023-02-03T15:56:10;37.85;;;6.22;;
26325;SDS011;14032;52.510;7.342;2023-02-03T15:58:46;36.30;;;5.78;;
26325;SDS011;14032;52.510;7.342;2023-02-03T16:01:13;35.10;;;6.45;;
26325;SDS011;14032;52.510;7.342;2023-02-03T16:03:50;37.83;;;5.88;;
26325;SDS011;14032;52.510;7.342;2023-02-03T16:08:49;29.85;;;5.57;;
26325;SDS011;14032;52.510;7.342;2023-02-03T16:11:29;37.00;;;6.18;;
26325;SDS011;14032;52.510;7.342;2023-02-03T16:14:01;29.45;;;6.18;;
26325;SDS011;14032;52.510;7.342;2023-02-03T16:16:28;36.83;;;7.45;;
26325;SDS011;14032;52.510;7.342;2023-02-03T16:19:11;40.05;;;6.13;;
26325;SDS011;14032;52.510;7.342;2023-02-03T16:30:35;31.70;;;6.25;;
26325;SDS011;14032;52.510;7.342;2023-02-03T16:33:09;30.75;;;5.47;;
26325;SDS011;14032;52.510;7.342;2023-02-03T16:36:01;35.67;;;6.20;;
26325;SDS011;14032;52.510;7.342;2023-02-03T16:38:53;35.35;;;5.57;;
26325;SDS011;14032;52.510;7.342;2023-02-03T16:41:37;41.00;;;5.72;;
26325;SDS011;14032;52.510;7.342;2023-02-03T16:44:21;31.27;;;4.70;;
26325;SDS011;14032;52.510;7.342;2023-02-03T16:50:21;27.58;;;4.88;;
26325;SDS011;14032;52.510;7.342;2023-02-03T16:53:11;25.65;;;4.80;;
26325;SDS011;14032;52.510;7.342;2023-02-03T16:55:38;26.45;;;5.20;;
26325;SDS011;14032;52.510;7.342;2023-02-03T16:58:04;34.03;;;5.00;;
26325;SDS011;14032;52.510;7.342;2023-02-03T17:00:30;29.10;;;5.00;;
26325;SDS011;14032;52.510;7.342;2023-02-03T17:02:56;34.05;;;5.93;;
26325;SDS011;14032;52.510;7.342;2023-02-03T17:05:21;34.72;;;6.55;;
26325;SDS011;14032;52.510;7.342;2023-02-03T17:07:47;33.97;;;6.63;;
26325;SDS011;14032;52.510;7.342;2023-02-03T17:10:13;29.45;;;5.68;;
26325;SDS011;14032;52.510;7.342;2023-02-03T17:12:39;34.17;;;5.10;;
26325;SDS011;14032;52.510;7.342;2023-02-03T17:15:05;27.92;;;4.78;;
26325;SDS011;14032;52.510;7.342;2023-02-03T17:17:31;34.08;;;5.45;;
26325;SDS011;14032;52.510;7.342;2023-02-03T17:19:57;33.47;;;5.30;;
26325;SDS011;14032;52.510;7.342;2023-02-03T17:22:23;31.92;;;5.97;;
26325;SDS011;14032;52.510;7.342;2023-02-03T17:24:51;33.35;;;6.28;;
26325;SDS011;14032;52.510;7.342;2023-02-03T17:27:17;29.25;;;5.05;;
26325;SDS011;14032;52.510;7.342;2023-02-03T17:29:42;30.88;;;4.90;;
26325;SDS011;14032;52.510;7.342;2023-02-03T17:32:08;33.75;;;5.72;;